createdAt,value
2022-08-05T00:00:44.565Z,5.4
2022-08-05T00:10:31.052Z,5.5
2022-08-05T00:15:22.832Z,5.2
2022-08-05T00:20:16.075Z,5.3
2022-08-05T00:25:07.812Z,6.2
2022-08-05T00:34:54.286Z,4.9
2022-08-05T00:44:40.797Z,11.4
2022-08-05T00:49:32.553Z,24.3
2022-08-05T01:04:12.285Z,6.1
2022-08-05T01:09:05.568Z,7.7
2022-08-05T01:11:30.653Z,7.4
2022-08-05T01:13:57.279Z,5.3
2022-08-05T01:26:10.421Z,6.3
2022-08-05T01:28:37.052Z,5.5
2022-08-05T01:33:30.272Z,5
2022-08-05T01:38:23.506Z,5.2
2022-08-05T01:40:50.128Z,5.2
2022-08-05T01:53:03.268Z,5.2
2022-08-05T01:57:56.493Z,5.9
2022-08-05T02:02:48.256Z,6.8
2022-08-05T02:07:41.501Z,5.7
2022-08-05T02:10:08.145Z,7.9
2022-08-05T02:17:28.012Z,7.7
2022-08-05T02:22:21.234Z,5.8
2022-08-05T02:27:14.474Z,5.3
2022-08-05T02:39:27.612Z,5.3
2022-08-05T02:41:54.209Z,5.5
2022-08-05T02:46:47.470Z,5.9
2022-08-05T02:51:39.224Z,7.8
2022-08-05T03:01:25.710Z,23.2
2022-08-05T03:06:52.339Z,9.5
2022-08-05T03:08:45.573Z,10.7
2022-08-05T03:11:12.189Z,13
2022-08-05T03:13:38.804Z,7.3
2022-08-05T03:16:05.460Z,7.2
2022-08-05T03:18:32.081Z,14.8
2022-08-05T03:23:25.302Z,7.6
2022-08-05T03:25:51.928Z,9.8
2022-08-05T03:33:11.824Z,6.7
2022-08-05T03:35:38.406Z,7.6
2022-08-05T03:38:03.562Z,7.5
2022-08-05T03:40:30.168Z,4.7
2022-08-05T03:42:56.829Z,6.1
2022-08-05T03:50:16.662Z,9.8
2022-08-05T03:52:43.282Z,5.2
2022-08-05T03:57:36.563Z,5.3
2022-08-05T04:00:03.140Z,10.7
2022-08-05T04:04:56.391Z,5.1
2022-08-05T04:07:23.014Z,4.8
2022-08-05T04:19:36.133Z,5.4
2022-08-05T04:22:02.759Z,5
2022-08-05T04:24:29.367Z,5.9
2022-08-05T04:26:54.505Z,6.1
2022-08-05T04:29:21.117Z,6.9
2022-08-05T04:31:47.757Z,7.3
2022-08-05T04:36:41.004Z,5.8
2022-08-05T04:39:07.613Z,8.6
2022-08-05T04:41:34.248Z,10.9
2022-08-05T04:46:27.491Z,6.2
2022-08-05T04:48:54.107Z,5.8
2022-08-05T04:51:20.721Z,6.1
2022-08-05T04:56:14.250Z,7
2022-08-05T05:06:00.479Z,10.4
2022-08-05T05:08:27.106Z,7.7
2022-08-05T05:13:20.325Z,10.1
2022-08-05T05:18:12.090Z,8.4
2022-08-05T05:20:38.728Z,7
2022-08-05T05:23:05.338Z,5.7
2022-08-05T05:25:31.951Z,5.8
2022-08-05T05:27:58.591Z,7.6
2022-08-05T05:30:25.200Z,7.4
2022-08-05T05:32:51.868Z,7.9
2022-08-05T05:35:18.466Z,7.9
2022-08-05T05:37:45.072Z,5.7
2022-08-05T05:40:11.705Z,6.6
2022-08-05T05:42:38.317Z,8
2022-08-05T05:45:04.949Z,9.8
2022-08-05T05:47:30.077Z,6.6
2022-08-05T05:49:56.703Z,7.2
2022-08-05T05:52:23.321Z,6.8
2022-08-05T05:57:16.566Z,6.6
2022-08-05T06:02:09.803Z,8.7
2022-08-05T06:07:03.059Z,7.7
2022-08-05T06:11:58.943Z,5.9
2022-08-05T06:16:49.546Z,7
2022-08-05T06:19:16.179Z,10.2
2022-08-05T06:21:42.795Z,7.5
2022-08-05T06:24:09.437Z,11.3
2022-08-05T06:26:36.035Z,7.3
2022-08-05T06:29:01.167Z,9
2022-08-05T06:31:27.779Z,6.2
2022-08-05T06:33:54.408Z,7.8
2022-08-05T06:36:21.025Z,8.5
2022-08-05T06:43:40.908Z,9
2022-08-05T06:46:07.528Z,4.5
2022-08-05T06:48:34.145Z,6.1
2022-08-05T06:51:00.773Z,7.4
2022-08-05T06:55:54.009Z,5.3
2022-08-05T06:58:20.643Z,7
2022-08-05T07:00:45.776Z,10.1
2022-08-05T07:05:39.016Z,6.8
2022-08-05T07:08:05.631Z,6.7
2022-08-05T07:10:32.254Z,8.5
2022-08-05T07:15:25.498Z,5.5
2022-08-05T07:17:52.134Z,6.3
2022-08-05T07:20:18.742Z,5.4
2022-08-05T07:22:45.394Z,4
2022-08-05T07:25:12.016Z,4
2022-08-05T07:30:05.243Z,5.8
2022-08-05T07:34:56.994Z,3.7
2022-08-05T07:37:23.614Z,6.4
2022-08-05T07:39:50.237Z,3.7
2022-08-05T07:44:43.479Z,4.8
2022-08-05T07:47:10.111Z,4.3
2022-08-05T07:49:36.722Z,6
2022-08-05T07:52:03.343Z,3.5
2022-08-05T07:54:29.969Z,3.1
2022-08-05T07:56:56.603Z,3.2
2022-08-05T07:59:23.221Z,3.5
2022-08-05T08:01:49.861Z,3.2
2022-08-05T08:04:16.474Z,4.4
2022-08-05T08:06:41.599Z,3.4
2022-08-05T08:09:08.218Z,3.2
2022-08-05T08:11:34.840Z,5.4
2022-08-05T08:14:01.469Z,3.7
2022-08-05T08:16:28.082Z,3.8
2022-08-05T08:18:54.707Z,3.6
2022-08-05T08:21:21.337Z,3.4
2022-08-05T08:23:47.948Z,3.9
2022-08-05T08:26:13.081Z,3.5
2022-08-05T08:28:39.707Z,4.3
2022-08-05T08:31:04.844Z,3.5
2022-08-05T08:33:31.464Z,3.1
2022-08-05T08:38:24.706Z,3.5
2022-08-05T08:43:17.957Z,3
2022-08-05T08:48:11.224Z,2.8
2022-08-05T08:50:37.831Z,2.8
2022-08-05T08:53:04.462Z,2.8
2022-08-05T08:55:31.083Z,6.8
2022-08-05T08:57:57.705Z,3.2
2022-08-05T09:02:49.456Z,3.2
2022-08-05T09:07:42.704Z,2.6
2022-08-05T09:10:07.837Z,3.2
2022-08-05T09:17:26.220Z,2.4
2022-08-05T09:19:52.838Z,2.8
2022-08-05T09:22:19.453Z,3
2022-08-05T09:27:11.226Z,2.9
2022-08-05T09:32:04.475Z,2.9
2022-08-05T09:34:31.086Z,2.6
2022-08-05T09:36:56.222Z,2.6
2022-08-05T09:39:22.854Z,2.3
2022-08-05T09:41:49.454Z,2.3
2022-08-05T09:44:16.088Z,5
2022-08-05T09:46:42.713Z,2.3
2022-08-05T09:49:09.325Z,2.4
2022-08-05T09:51:35.965Z,2.5
2022-08-05T09:54:02.589Z,2.4
2022-08-05T09:56:29.204Z,2.4
2022-08-05T09:58:55.838Z,2.1
2022-08-05T10:01:22.458Z,2.3
2022-08-05T10:03:49.076Z,2.5
2022-08-05T10:06:15.691Z,2.7
2022-08-05T10:08:42.327Z,2.4
2022-08-05T10:11:07.463Z,2.2
2022-08-05T10:13:34.075Z,2.4
2022-08-05T10:16:00.708Z,3.4
2022-08-05T10:18:25.824Z,2.9
2022-08-05T10:20:50.954Z,2.6
2022-08-05T10:23:17.588Z,2.6
2022-08-05T10:30:37.455Z,2.8
2022-08-05T10:33:04.095Z,2.7
2022-08-05T10:35:30.698Z,2.3
2022-08-05T10:37:57.343Z,2.6
2022-08-05T10:42:50.580Z,2.3
2022-08-05T10:45:20.799Z,2.9
2022-08-05T10:47:43.842Z,2.6
2022-08-05T10:55:03.723Z,2.8
2022-08-05T10:59:55.464Z,2.3
2022-08-05T11:02:20.601Z,2
2022-08-05T11:09:38.968Z,2.5
2022-08-05T11:14:32.214Z,3.4
2022-08-05T11:16:58.849Z,3.4
2022-08-05T11:19:25.462Z,3.3
2022-08-05T11:24:18.706Z,3.6
2022-08-05T11:29:11.963Z,2.3
2022-08-05T11:34:05.218Z,2.9
2022-08-05T11:36:31.840Z,2.9
2022-08-05T11:38:58.460Z,2.8
2022-08-05T11:43:50.209Z,2.7
2022-08-05T11:48:43.465Z,2.8
2022-08-05T11:53:36.706Z,2.8
2022-08-05T11:56:03.322Z,2.6
2022-08-05T11:58:29.980Z,3.3
2022-08-05T12:03:23.206Z,3
2022-08-05T12:08:16.453Z,3.6
2022-08-05T12:10:43.074Z,2.7
2022-08-05T12:13:09.703Z,3.6
2022-08-05T12:18:01.462Z,2.6
2022-08-05T12:20:28.096Z,3.4
2022-08-05T12:22:54.708Z,2.4
2022-08-05T12:27:47.953Z,2.6
2022-08-05T12:30:14.579Z,2.6
2022-08-05T12:32:41.201Z,2.3
2022-08-05T12:37:34.459Z,2.4
2022-08-05T12:40:01.088Z,2.6
2022-08-05T12:42:27.709Z,2.8
2022-08-05T12:47:20.952Z,2.4
2022-08-05T12:52:12.720Z,2.8
2022-08-05T12:57:05.976Z,3.6
2022-08-05T12:59:32.578Z,4.4
2022-08-05T13:01:59.207Z,3.4
2022-08-05T13:06:52.463Z,2.8
2022-08-05T13:09:19.082Z,2.7
2022-08-05T13:11:45.702Z,2.6
2022-08-05T13:16:38.957Z,3.2
2022-08-05T13:19:05.596Z,3.1
2022-08-05T13:21:32.233Z,3.1
2022-08-05T13:26:23.971Z,3.7
2022-08-05T13:28:50.588Z,3
2022-08-05T13:31:17.216Z,3.7
2022-08-05T13:38:37.086Z,4.2
2022-08-05T13:41:03.718Z,4.5
2022-08-05T13:45:56.963Z,3
2022-08-05T13:50:50.219Z,2.6
2022-08-05T13:53:16.834Z,3.4
2022-08-05T13:55:43.470Z,3.2
2022-08-05T14:00:36.712Z,4.4
2022-08-05T14:03:01.844Z,3.7
2022-08-05T14:05:28.472Z,3.2
2022-08-05T14:07:55.096Z,3.7
2022-08-05T14:10:21.711Z,3.5
2022-08-05T14:15:14.952Z,3.9
2022-08-05T14:20:08.240Z,4.3
2022-08-05T14:25:01.477Z,3.9
2022-08-05T14:29:54.731Z,3.4
2022-08-05T14:34:48.005Z,3.4
2022-08-05T14:37:13.086Z,3.4
2022-08-05T14:39:39.720Z,3.4
2022-08-05T14:44:32.998Z,4.7
2022-08-05T14:46:59.605Z,3.3
2022-08-05T14:49:26.220Z,3.2
2022-08-05T14:51:52.852Z,3.4
2022-08-05T14:54:19.473Z,5.2
2022-08-05T14:56:46.099Z,3.1
2022-08-05T14:59:12.714Z,6.3
2022-08-05T15:01:39.348Z,5.1
2022-08-05T15:04:05.984Z,2.9
2022-08-05T15:06:32.608Z,3.1
2022-08-05T15:08:57.715Z,5
2022-08-05T15:13:50.963Z,3.7
2022-08-05T15:16:17.601Z,2.8
2022-08-05T15:18:44.258Z,3.7
2022-08-05T15:21:10.839Z,7.7
2022-08-05T15:23:37.461Z,3.5
2022-08-05T15:26:04.091Z,3.6
2022-08-05T15:28:30.713Z,3.7
2022-08-05T15:30:57.369Z,7.6
2022-08-05T15:33:23.961Z,7.5
2022-08-05T15:35:49.095Z,6.3
2022-08-05T15:38:14.239Z,5.1
2022-08-05T15:40:40.855Z,4.2
2022-08-05T15:43:07.478Z,4.6
2022-08-05T15:45:34.090Z,3.7
2022-08-05T15:48:00.732Z,6.6
2022-08-05T15:50:27.357Z,5.3
2022-08-05T15:52:53.971Z,4
2022-08-05T15:55:20.593Z,6.4
2022-08-05T15:57:47.250Z,3.4
2022-08-05T16:00:12.360Z,4
2022-08-05T16:02:37.486Z,4.2
2022-08-05T16:05:04.113Z,5.4
2022-08-05T16:07:30.740Z,5.9
2022-08-05T16:09:57.376Z,4.4
2022-08-05T16:12:24.005Z,6.2
2022-08-05T16:14:50.616Z,4.1
2022-08-05T16:17:17.254Z,4.9
2022-08-05T16:19:43.856Z,4.7
2022-08-05T16:22:10.501Z,5.3
2022-08-05T16:24:37.100Z,4.5
2022-08-05T16:27:03.715Z,4.2
2022-08-05T16:29:30.352Z,4.6
2022-08-05T16:31:56.983Z,6.3
2022-08-05T16:34:23.605Z,4.7
2022-08-05T16:36:48.720Z,4
2022-08-05T16:39:15.379Z,5.9
2022-08-05T16:41:41.976Z,4.5
2022-08-05T16:44:08.617Z,4.4
2022-08-05T16:46:35.234Z,4.4
2022-08-05T16:49:01.844Z,4.4
2022-08-05T16:51:28.466Z,3.9
2022-08-05T16:53:55.102Z,4.6
2022-08-05T16:56:21.724Z,3.9
2022-08-05T16:58:48.335Z,4.6
2022-08-05T17:01:14.979Z,4.8
2022-08-05T17:03:41.587Z,5
2022-08-05T17:06:08.227Z,3.9
2022-08-05T17:08:33.345Z,3.9
2022-08-05T17:10:59.975Z,4.8
2022-08-05T17:13:26.603Z,4.7
2022-08-05T17:15:53.220Z,5.1
2022-08-05T17:18:19.820Z,4.4
2022-08-05T17:20:46.466Z,4.1
2022-08-05T17:23:13.103Z,3.8
2022-08-05T17:25:39.694Z,4.8
2022-08-05T17:28:06.351Z,3
2022-08-05T17:30:32.946Z,3.9
2022-08-05T17:32:59.598Z,4
2022-08-05T17:35:26.211Z,4
2022-08-05T17:37:52.833Z,4.7
2022-08-05T17:40:17.966Z,4
2022-08-05T17:42:44.569Z,5.2
2022-08-05T17:45:11.196Z,4.1
2022-08-05T17:47:36.357Z,4.6
2022-08-05T17:50:02.964Z,3.6
2022-08-05T17:52:29.614Z,4.1
2022-08-05T17:54:56.203Z,5.3
2022-08-05T17:57:22.830Z,3.9
2022-08-05T17:59:49.431Z,3.9
2022-08-05T18:02:16.081Z,3.8
2022-08-05T18:04:42.686Z,4.3
2022-08-05T18:07:09.344Z,6.1
2022-08-05T18:09:35.946Z,3.9
2022-08-05T18:12:02.579Z,4.2
2022-08-05T18:14:29.188Z,3.7
2022-08-05T18:16:55.832Z,4.3
2022-08-05T18:19:20.939Z,6.3
2022-08-05T18:21:47.554Z,5.9
2022-08-05T18:24:14.171Z,4.7
2022-08-05T18:26:40.825Z,6.7
2022-08-05T18:29:07.432Z,3.5
2022-08-05T18:31:34.053Z,4.4
2022-08-05T18:34:00.690Z,4.8
2022-08-05T18:36:27.283Z,4.7
2022-08-05T18:38:53.919Z,3.8
2022-08-05T18:41:20.537Z,5.6
2022-08-05T18:43:47.153Z,3.9
2022-08-05T18:46:13.813Z,4.3
2022-08-05T18:48:40.444Z,4.1
2022-08-05T18:51:07.257Z,4
2022-08-05T18:53:32.156Z,6.5
2022-08-05T18:55:58.777Z,4.3
2022-08-05T18:58:25.417Z,5.1
2022-08-05T19:00:52.045Z,5.7
2022-08-05T19:03:18.644Z,4.7
2022-08-05T19:05:45.289Z,5.9
2022-08-05T19:08:11.891Z,5.7
2022-08-05T19:10:38.520Z,5.7
2022-08-05T19:13:05.146Z,6.6
2022-08-05T19:15:31.761Z,5.7
2022-08-05T19:17:58.393Z,7.2
2022-08-05T19:20:25.016Z,6.5
2022-08-05T19:22:50.143Z,8
2022-08-05T19:25:16.769Z,7.2
2022-08-05T19:27:43.380Z,7.6
2022-08-05T19:30:10.019Z,6.9
2022-08-05T19:32:36.628Z,8.7
2022-08-05T19:35:03.253Z,7.5
2022-08-05T19:37:29.897Z,8.9
2022-08-05T19:39:56.503Z,8.6
2022-08-05T19:42:23.132Z,9.1
2022-08-05T19:44:49.756Z,6.7
2022-08-05T19:47:16.378Z,7.6
2022-08-05T19:49:42.997Z,8.8
2022-08-05T19:52:09.620Z,7.5
2022-08-05T19:54:34.754Z,8.3
2022-08-05T19:57:01.374Z,8.9
2022-08-05T19:59:28.005Z,8
2022-08-05T20:01:54.622Z,8.9
2022-08-05T20:04:21.249Z,9.4
2022-08-05T20:06:47.860Z,9
2022-08-05T20:09:14.481Z,8.4
2022-08-05T20:11:41.107Z,10.4
2022-08-05T20:14:07.724Z,10.4
2022-08-05T20:16:34.348Z,12.3
2022-08-05T20:19:00.991Z,9
2022-08-05T20:21:27.604Z,8.4
2022-08-05T20:23:54.228Z,9.5
2022-08-05T20:26:19.365Z,10.9
2022-08-05T20:28:45.989Z,9.5
2022-08-05T20:31:12.598Z,10.7
2022-08-05T20:33:39.225Z,8.7
2022-08-05T20:36:05.848Z,8.4
2022-08-05T20:38:32.473Z,8.4
2022-08-05T20:40:59.094Z,9.8
2022-08-05T20:43:25.721Z,8.7
2022-08-05T20:45:52.345Z,7.9
2022-08-05T20:48:18.979Z,7.2
2022-08-05T20:50:45.595Z,7.7
2022-08-05T20:53:12.213Z,7
2022-08-05T20:55:38.842Z,9
2022-08-05T20:58:03.957Z,7.8
2022-08-05T21:00:30.586Z,8
2022-08-05T21:02:57.201Z,8.7
2022-08-05T21:05:23.826Z,9.6
2022-08-05T21:07:50.446Z,10.9
2022-08-05T21:10:17.065Z,11.9
2022-08-05T21:12:43.701Z,11.5
2022-08-05T21:15:10.323Z,10.3
2022-08-05T21:17:36.946Z,10.7
2022-08-05T21:20:03.568Z,11.5
2022-08-05T21:22:30.194Z,8.5
2022-08-05T21:24:56.858Z,9.3
2022-08-05T21:27:23.429Z,8.8
2022-08-05T21:29:50.054Z,9.4
2022-08-05T21:32:15.200Z,10.4
2022-08-05T21:34:41.808Z,9.5
2022-08-05T21:37:08.454Z,10
2022-08-05T21:39:35.047Z,10.2
2022-08-05T21:42:01.676Z,10.9
2022-08-05T21:44:28.299Z,11.1
2022-08-05T21:46:54.925Z,11.1
2022-08-05T21:49:21.547Z,15.2
2022-08-05T21:51:48.169Z,12.3
2022-08-05T21:54:14.798Z,10.4
2022-08-05T21:56:41.422Z,11
2022-08-05T21:59:08.052Z,11.4
2022-08-05T22:01:34.666Z,11.4
2022-08-05T22:03:59.802Z,10.6
2022-08-05T22:06:26.423Z,8.6
2022-08-05T22:08:53.069Z,9.8
2022-08-05T22:11:19.676Z,8.6
2022-08-05T22:13:46.287Z,9
2022-08-05T22:16:12.914Z,10.4
2022-08-05T22:18:39.531Z,11.2
2022-08-05T22:21:06.157Z,12.8
2022-08-05T22:23:32.786Z,20.3
2022-08-05T22:25:59.710Z,7.9
2022-08-05T22:28:26.037Z,9
2022-08-05T22:30:52.641Z,7
2022-08-05T22:33:19.282Z,7.3
2022-08-05T22:35:44.408Z,5.8
2022-08-05T22:38:11.016Z,6.1
2022-08-05T22:40:37.658Z,7.1
2022-08-05T22:43:04.288Z,6.4
2022-08-05T22:45:30.887Z,6.7
2022-08-05T22:47:57.510Z,6.6
2022-08-05T22:50:24.132Z,6.8
2022-08-05T22:52:50.769Z,7
2022-08-05T22:55:17.381Z,5.7
2022-08-05T22:57:44.009Z,6.3
2022-08-05T23:00:10.639Z,5.9
2022-08-05T23:02:37.252Z,5.1
2022-08-05T23:05:03.880Z,6.2
2022-08-05T23:07:29.000Z,6.5
2022-08-05T23:09:55.629Z,6.6
2022-08-05T23:12:22.253Z,5.3
2022-08-05T23:14:48.889Z,6.5
2022-08-05T23:17:15.485Z,5.8
2022-08-05T23:19:42.111Z,6
2022-08-05T23:22:08.739Z,5.5
2022-08-05T23:24:35.371Z,4.1
2022-08-05T23:27:01.984Z,4.6
2022-08-05T23:29:28.608Z,4.2
2022-08-05T23:31:55.241Z,5.8
2022-08-05T23:34:21.852Z,3.5
2022-08-05T23:36:48.505Z,3.6
2022-08-05T23:39:13.607Z,3.5
2022-08-05T23:41:40.224Z,4.4
2022-08-05T23:44:06.852Z,3.1
2022-08-05T23:46:33.492Z,2.9
2022-08-05T23:49:00.095Z,4.7
2022-08-05T23:51:26.720Z,3.9
2022-08-05T23:53:53.339Z,5.3
2022-08-05T23:56:19.976Z,3.3
2022-08-05T23:58:46.595Z,2.3
